createdAt,value
2022-11-08T00:02:10.808Z,38.42
2022-11-08T00:05:33.750Z,41.92
2022-11-08T00:08:56.471Z,36.60
2022-11-08T00:12:19.050Z,27.65
2022-11-08T00:15:23.401Z,26.80
2022-11-08T00:18:27.669Z,27.83
2022-11-08T00:21:31.973Z,31.02
2022-11-08T00:24:36.545Z,29.30
2022-11-08T00:27:41.016Z,29.67
2022-11-08T00:30:45.389Z,30.33
2022-11-08T00:33:49.637Z,35.08
2022-11-08T00:36:54.477Z,34.22
2022-11-08T00:39:58.698Z,33.97
2022-11-08T00:43:03.086Z,34.10
2022-11-08T00:46:07.405Z,35.20
2022-11-08T00:49:12.567Z,33.08
2022-11-08T00:52:16.612Z,32.03
2022-11-08T00:55:20.962Z,33.35
2022-11-08T00:58:27.720Z,33.38
2022-11-08T01:01:32.802Z,35.42
2022-11-08T01:04:37.759Z,32.53
2022-11-08T01:07:42.119Z,35.80
2022-11-08T01:10:49.366Z,34.08
2022-11-08T01:13:57.564Z,34.03
2022-11-08T01:17:01.975Z,33.00
2022-11-08T01:20:07.171Z,26.70
2022-11-08T01:23:13.166Z,30.73
2022-11-08T01:29:23.450Z,31.20
2022-11-08T01:32:27.562Z,29.45
2022-11-08T01:35:35.290Z,30.83
2022-11-08T01:38:40.229Z,32.28
2022-11-08T01:41:44.540Z,28.48
2022-11-08T01:45:01.585Z,28.67
2022-11-08T01:48:06.593Z,29.45
2022-11-08T01:51:14.335Z,30.65
2022-11-08T01:54:24.196Z,29.70
2022-11-08T01:58:07.628Z,28.73
2022-11-08T02:01:13.962Z,28.35
2022-11-08T02:04:18.691Z,29.33
2022-11-08T02:07:24.165Z,28.85
2022-11-08T02:10:35.130Z,26.88
2022-11-08T02:13:40.306Z,24.00
2022-11-08T02:16:44.767Z,25.30
2022-11-08T02:19:52.041Z,22.77
2022-11-08T02:23:14.196Z,23.85
2022-11-08T02:26:21.434Z,24.83
2022-11-08T02:29:25.716Z,26.15
2022-11-08T02:32:41.661Z,25.17
2022-11-08T02:35:49.706Z,25.35
2022-11-08T02:38:57.053Z,21.13
2022-11-08T02:42:03.092Z,21.38
2022-11-08T02:45:09.186Z,21.55
2022-11-08T02:48:14.297Z,24.85
2022-11-08T02:51:18.990Z,20.15
2022-11-08T02:54:23.582Z,18.17
2022-11-08T02:57:27.960Z,19.85
2022-11-08T03:00:33.316Z,21.63
2022-11-08T03:03:37.973Z,24.70
2022-11-08T03:06:42.262Z,34.05
2022-11-08T03:09:46.613Z,19.92
2022-11-08T03:12:59.182Z,20.60
2022-11-08T03:16:07.540Z,17.92
2022-11-08T03:19:13.317Z,20.38
2022-11-08T03:25:21.571Z,14.02
2022-11-08T03:28:25.999Z,15.80
2022-11-08T03:31:30.439Z,13.55
2022-11-08T03:34:34.661Z,15.25
2022-11-08T03:37:39.100Z,12.85
2022-11-08T03:40:44.138Z,12.07
2022-11-08T03:43:48.508Z,13.83
2022-11-08T03:46:52.692Z,13.10
2022-11-08T03:49:56.992Z,12.15
2022-11-08T03:53:01.263Z,12.30
2022-11-08T03:56:05.993Z,12.85
2022-11-08T03:59:12.518Z,12.10
2022-11-08T04:02:17.031Z,12.48
2022-11-08T04:05:23.109Z,12.25
2022-11-08T04:08:27.506Z,12.73
2022-11-08T04:11:50.389Z,13.00
2022-11-08T04:15:13.179Z,13.05
2022-11-08T04:18:35.927Z,14.30
2022-11-08T04:21:40.279Z,10.88
2022-11-08T04:24:45.145Z,12.55
2022-11-08T04:27:49.555Z,11.02
2022-11-08T04:31:06.828Z,12.43
2022-11-08T04:34:11.357Z,12.98
2022-11-08T04:37:15.554Z,11.93
2022-11-08T04:40:20.170Z,12.13
2022-11-08T04:43:24.842Z,13.00
2022-11-08T04:46:30.777Z,12.33
2022-11-08T04:52:39.228Z,12.32
2022-11-08T04:55:43.676Z,12.02
2022-11-08T04:58:53.227Z,12.35
2022-11-08T05:01:57.899Z,11.00
2022-11-08T05:05:02.097Z,11.02
2022-11-08T05:08:07.459Z,10.05
2022-11-08T05:11:16.948Z,10.52
2022-11-08T05:14:21.461Z,10.77
2022-11-08T05:17:25.506Z,9.70
2022-11-08T05:20:48.332Z,10.43
2022-11-08T05:23:53.197Z,11.35
2022-11-08T05:26:57.781Z,10.43
2022-11-08T05:30:02.458Z,10.38
2022-11-08T05:33:07.443Z,9.85
2022-11-08T05:36:14.218Z,10.10
2022-11-08T05:39:18.445Z,9.85
2022-11-08T05:42:22.779Z,11.45
2022-11-08T05:45:27.197Z,10.43
2022-11-08T05:48:32.059Z,11.75
2022-11-08T05:51:36.333Z,9.32
2022-11-08T05:54:40.529Z,9.25
2022-11-08T05:57:44.608Z,9.02
2022-11-08T06:00:48.819Z,10.25
2022-11-08T06:03:53.306Z,8.85
2022-11-08T06:06:57.551Z,8.05
2022-11-08T06:10:02.010Z,7.45
2022-11-08T06:13:07.331Z,7.50
2022-11-08T06:16:14.198Z,6.90
2022-11-08T06:19:18.406Z,6.20
2022-11-08T06:22:22.550Z,6.80
2022-11-08T06:25:27.021Z,6.80
2022-11-08T06:28:31.333Z,6.90
2022-11-08T06:31:41.884Z,6.50
2022-11-08T06:34:50.016Z,6.95
2022-11-08T06:37:59.891Z,9.32
2022-11-08T06:41:05.137Z,10.23
2022-11-08T06:44:09.496Z,9.98
2022-11-08T06:47:13.627Z,9.57
2022-11-08T06:50:17.794Z,15.05
2022-11-08T06:53:22.411Z,11.50
2022-11-08T06:56:27.140Z,12.60
2022-11-08T06:59:31.587Z,15.77
2022-11-08T07:02:36.361Z,14.52
2022-11-08T07:05:40.536Z,13.73
2022-11-08T07:08:45.086Z,13.65
2022-11-08T07:11:49.388Z,14.63
2022-11-08T07:14:53.665Z,13.85
2022-11-08T07:18:03.223Z,18.05
2022-11-08T07:21:07.783Z,13.50
2022-11-08T07:24:12.219Z,15.60
2022-11-08T07:27:16.762Z,20.00
2022-11-08T07:30:20.888Z,17.98
2022-11-08T07:33:25.328Z,18.38
2022-11-08T07:36:29.760Z,13.25
2022-11-08T07:39:34.170Z,10.90
2022-11-08T07:43:09.651Z,13.25
2022-11-08T07:46:04.271Z,25.00
2022-11-08T07:49:08.744Z,21.20
2022-11-08T07:52:13.326Z,54.97
2022-11-08T07:55:17.594Z,36.65
2022-11-08T07:58:22.027Z,49.65
2022-11-08T08:01:26.486Z,36.08
2022-11-08T08:04:31.790Z,43.97
2022-11-08T08:07:37.368Z,37.85
2022-11-08T08:10:42.633Z,49.65
2022-11-08T08:13:47.324Z,47.60
2022-11-08T08:16:51.953Z,45.38
2022-11-08T08:19:56.541Z,47.15
2022-11-08T08:23:01.869Z,67.75
2022-11-08T08:26:06.454Z,51.28
2022-11-08T08:29:10.913Z,58.55
2022-11-08T08:32:15.698Z,57.53
2022-11-08T08:35:20.223Z,54.78
2022-11-08T08:38:26.012Z,55.50
2022-11-08T08:41:30.056Z,70.65
2022-11-08T08:44:34.990Z,71.15
2022-11-08T08:47:39.370Z,70.95
2022-11-08T08:50:43.782Z,61.63
2022-11-08T08:53:48.223Z,59.42
2022-11-08T08:56:54.805Z,73.63
2022-11-08T09:03:23.673Z,82.18
2022-11-08T09:06:28.190Z,81.50
2022-11-08T09:09:32.692Z,95.75
2022-11-08T09:12:37.628Z,93.90
2022-11-08T09:15:42.404Z,82.47
2022-11-08T09:18:46.750Z,91.65
2022-11-08T09:21:51.345Z,68.78
2022-11-08T09:24:55.683Z,76.45
2022-11-08T09:28:00.135Z,57.47
2022-11-08T09:31:07.264Z,68.07
2022-11-08T09:34:11.726Z,62.85
2022-11-08T09:37:16.107Z,64.75
2022-11-08T09:40:34.242Z,64.47
2022-11-08T09:44:00.885Z,63.97
2022-11-08T09:50:39.699Z,70.18
2022-11-08T09:54:05.164Z,68.18
2022-11-08T09:58:00.392Z,74.10
2022-11-08T10:01:05.581Z,86.75
2022-11-08T10:04:17.536Z,80.03
2022-11-08T10:07:37.806Z,80.88
2022-11-08T10:10:48.657Z,87.32
2022-11-08T10:14:26.619Z,82.60
2022-11-08T10:17:34.203Z,90.72
2022-11-08T10:20:59.611Z,92.13
2022-11-08T10:24:10.472Z,84.83
2022-11-08T10:27:34.207Z,85.43
2022-11-08T10:30:41.744Z,99.05
2022-11-08T10:33:56.383Z,95.57
2022-11-08T10:37:07.598Z,95.95
2022-11-08T10:40:26.634Z,94.97
2022-11-08T10:43:47.013Z,97.13
2022-11-08T10:46:57.452Z,89.05
2022-11-08T10:50:04.397Z,77.93
2022-11-08T10:53:24.238Z,84.78
2022-11-08T10:56:29.920Z,88.07
2022-11-08T10:59:35.099Z,92.93
2022-11-08T11:02:39.816Z,98.18
2022-11-08T11:05:59.712Z,99.15
2022-11-08T11:09:21.213Z,91.57
2022-11-08T11:12:26.527Z,97.13
2022-11-08T11:15:45.084Z,97.32
2022-11-08T11:18:54.042Z,78.82
2022-11-08T11:22:08.168Z,88.53
2022-11-08T11:25:21.618Z,68.43
2022-11-08T11:28:29.129Z,68.78
2022-11-08T11:31:45.554Z,79.40
2022-11-08T11:35:05.478Z,67.88
2022-11-08T11:38:21.041Z,69.10
2022-11-08T11:41:52.756Z,46.70
2022-11-08T11:45:21.111Z,45.97
2022-11-08T11:48:37.112Z,45.00
2022-11-08T11:51:46.303Z,73.80
2022-11-08T11:54:51.737Z,73.47
2022-11-08T11:58:27.928Z,46.95
2022-11-08T12:01:52.003Z,71.20
2022-11-08T12:05:02.419Z,60.92
2022-11-08T12:08:43.141Z,64.97
2022-11-08T12:12:20.974Z,69.80
2022-11-08T12:15:58.254Z,75.47
2022-11-08T12:19:31.861Z,75.82
2022-11-08T12:23:00.574Z,72.03
2022-11-08T12:26:25.567Z,68.68
2022-11-08T12:30:04.239Z,65.35
2022-11-08T12:33:57.647Z,66.47
2022-11-08T12:37:15.136Z,87.47
2022-11-08T12:40:32.935Z,81.13
2022-11-08T12:44:00.374Z,98.30
2022-11-08T12:47:25.326Z,110.65
2022-11-08T12:53:41.773Z,81.50
2022-11-08T12:56:50.902Z,78.80
2022-11-08T13:00:17.368Z,152.80
2022-11-08T13:03:42.572Z,118.55
2022-11-08T13:06:57.150Z,78.85
2022-11-08T13:10:04.700Z,124.25
2022-11-08T13:13:25.421Z,65.53
2022-11-08T13:16:40.711Z,91.68
2022-11-08T13:19:48.326Z,200.53
2022-11-08T13:23:01.191Z,109.78
2022-11-08T13:26:35.513Z,127.78
2022-11-08T13:29:40.049Z,68.10
2022-11-08T13:32:47.496Z,98.23
2022-11-08T13:36:13.579Z,88.90
2022-11-08T13:39:32.927Z,86.38
2022-11-08T13:42:37.246Z,63.03
2022-11-08T13:45:41.702Z,76.72
2022-11-08T13:49:06.317Z,76.45
2022-11-08T13:52:48.634Z,81.10
2022-11-08T13:55:57.993Z,43.47
2022-11-08T13:59:02.209Z,80.85
2022-11-08T14:02:26.504Z,60.72
2022-11-08T14:05:43.472Z,69.32
2022-11-08T14:08:59.393Z,108.60
2022-11-08T14:12:27.798Z,76.35
2022-11-08T14:15:58.251Z,98.85
2022-11-08T14:19:31.827Z,84.55
2022-11-08T14:22:36.142Z,109.50
2022-11-08T14:25:41.157Z,184.75
2022-11-08T14:28:47.436Z,194.52
2022-11-08T14:32:16.620Z,204.50
2022-11-08T14:35:26.746Z,142.38
2022-11-08T14:38:34.393Z,119.82
2022-11-08T14:41:38.880Z,108.00
2022-11-08T14:44:45.476Z,109.30
2022-11-08T14:48:00.363Z,90.57
2022-11-08T14:51:07.217Z,68.63
2022-11-08T14:54:38.209Z,61.40
2022-11-08T14:57:47.734Z,66.80
2022-11-08T15:00:52.218Z,68.65
2022-11-08T15:04:03.908Z,71.43
2022-11-08T15:07:10.675Z,63.38
2022-11-08T15:10:15.270Z,52.28
2022-11-08T15:13:20.118Z,55.25
2022-11-08T15:16:25.380Z,51.83
2022-11-08T15:19:45.370Z,50.00
2022-11-08T15:22:54.128Z,45.72
2022-11-08T15:26:01.877Z,28.00
2022-11-08T15:32:22.959Z,34.80
2022-11-08T15:35:40.591Z,27.85
2022-11-08T15:38:50.377Z,28.48
2022-11-08T15:42:24.264Z,25.05
2022-11-08T15:45:36.419Z,27.45
2022-11-08T15:48:42.174Z,28.52
2022-11-08T15:51:47.324Z,27.85
2022-11-08T15:54:51.523Z,24.65
2022-11-08T15:57:56.510Z,22.70
2022-11-08T16:01:02.904Z,21.50
2022-11-08T16:04:14.105Z,21.40
2022-11-08T16:07:18.625Z,21.90
2022-11-08T16:10:33.698Z,21.30
2022-11-08T16:13:40.764Z,18.65
2022-11-08T16:16:45.744Z,18.25
2022-11-08T16:19:50.244Z,17.85
2022-11-08T16:22:56.120Z,21.67
2022-11-08T16:26:01.781Z,24.00
2022-11-08T16:29:06.655Z,20.75
2022-11-08T16:32:11.659Z,14.68
2022-11-08T16:35:18.225Z,15.85
2022-11-08T16:38:29.426Z,14.07
2022-11-08T16:41:35.771Z,14.18
2022-11-08T16:44:45.223Z,13.82
2022-11-08T16:47:51.715Z,10.68
2022-11-08T16:51:04.221Z,12.40
2022-11-08T16:54:19.863Z,13.15
2022-11-08T16:57:39.596Z,12.40
2022-11-08T17:00:46.211Z,10.50
2022-11-08T17:03:50.691Z,10.10
2022-11-08T17:10:00.370Z,11.85
2022-11-08T17:13:05.037Z,11.10
2022-11-08T17:16:13.082Z,9.15
2022-11-08T17:19:17.420Z,10.18
2022-11-08T17:22:21.772Z,9.02
2022-11-08T17:28:31.529Z,8.63
2022-11-08T17:31:36.259Z,10.02
2022-11-08T17:34:40.830Z,8.50
2022-11-08T17:37:45.230Z,9.13
2022-11-08T17:40:49.660Z,9.15
2022-11-08T17:43:53.680Z,8.98
2022-11-08T17:46:58.209Z,10.05
2022-11-08T17:50:06.342Z,9.00
2022-11-08T17:53:10.796Z,9.80
2022-11-08T17:56:15.365Z,9.48
2022-11-08T17:59:20.135Z,9.48
2022-11-08T18:02:28.232Z,10.05
2022-11-08T18:05:32.750Z,9.40
2022-11-08T18:08:37.041Z,9.93
2022-11-08T18:11:48.458Z,9.43
2022-11-08T18:14:52.571Z,10.13
2022-11-08T18:17:57.152Z,9.73
2022-11-08T18:21:01.421Z,10.05
2022-11-08T18:24:05.950Z,9.50
2022-11-08T18:27:10.414Z,9.38
2022-11-08T18:30:15.078Z,9.35
2022-11-08T18:33:22.037Z,8.60
2022-11-08T18:36:29.430Z,9.93
2022-11-08T18:39:34.100Z,10.50
2022-11-08T18:42:38.673Z,9.23
2022-11-08T18:45:43.011Z,10.98
2022-11-08T18:48:47.869Z,9.82
2022-11-08T18:51:52.996Z,8.82
2022-11-08T18:54:58.567Z,9.88
2022-11-08T18:58:04.387Z,10.82
2022-11-08T19:04:14.401Z,10.55
2022-11-08T19:07:18.754Z,10.75
2022-11-08T19:10:23.196Z,10.48
2022-11-08T19:13:29.670Z,12.00
2022-11-08T19:16:34.227Z,12.50
2022-11-08T19:19:38.490Z,12.45
2022-11-08T19:22:43.106Z,12.75
2022-11-08T19:25:55.373Z,12.55
2022-11-08T19:29:00.231Z,11.55
2022-11-08T19:32:05.007Z,11.50
2022-11-08T19:35:10.926Z,13.90
2022-11-08T19:38:16.971Z,13.68
2022-11-08T19:41:23.453Z,12.05
2022-11-08T19:44:28.209Z,11.52
2022-11-08T19:47:33.019Z,12.33
2022-11-08T19:50:37.334Z,13.00
2022-11-08T19:53:42.504Z,13.52
2022-11-08T20:00:12.388Z,10.65
2022-11-08T20:03:16.368Z,12.75
2022-11-08T20:06:22.766Z,18.85
2022-11-08T20:09:30.595Z,14.15
2022-11-08T20:12:35.574Z,22.10
2022-11-08T20:15:39.837Z,16.13
2022-11-08T20:18:44.804Z,12.35
2022-11-08T20:21:49.370Z,13.55
2022-11-08T20:24:53.851Z,13.63
2022-11-08T20:27:57.814Z,14.18
2022-11-08T20:31:04.453Z,11.93
2022-11-08T20:34:11.105Z,13.00
2022-11-08T20:37:15.565Z,11.40
2022-11-08T20:40:19.936Z,12.07
2022-11-08T20:43:25.150Z,11.63
2022-11-08T20:46:30.532Z,10.27
2022-11-08T20:49:34.709Z,11.70
2022-11-08T20:52:39.207Z,11.75
2022-11-08T20:55:43.229Z,11.68
2022-11-08T20:58:49.038Z,10.63
2022-11-08T21:01:53.382Z,11.57
2022-11-08T21:04:57.749Z,11.05
2022-11-08T21:08:19.814Z,10.30
2022-11-08T21:11:28.625Z,13.95
2022-11-08T21:14:33.064Z,11.45
2022-11-08T21:17:37.670Z,13.55
2022-11-08T21:20:42.562Z,12.27
2022-11-08T21:23:48.787Z,13.67
2022-11-08T21:26:53.053Z,11.30
2022-11-08T21:29:57.420Z,11.95
2022-11-08T21:33:01.666Z,12.55
2022-11-08T21:36:06.889Z,15.55
2022-11-08T21:39:11.842Z,14.73
2022-11-08T21:42:16.295Z,14.30
2022-11-08T21:45:21.425Z,13.73
2022-11-08T21:48:25.588Z,15.23
2022-11-08T21:51:30.866Z,12.45
2022-11-08T21:54:35.157Z,11.70
2022-11-08T21:57:40.504Z,12.95
2022-11-08T22:00:50.791Z,11.23
2022-11-08T22:03:55.523Z,12.25
2022-11-08T22:06:59.849Z,10.57
2022-11-08T22:10:05.359Z,11.07
2022-11-08T22:13:09.810Z,11.15
2022-11-08T22:16:14.124Z,11.52
2022-11-08T22:19:18.341Z,12.25
2022-11-08T22:22:23.144Z,10.68
2022-11-08T22:25:27.384Z,15.45
2022-11-08T22:28:31.719Z,11.25
2022-11-08T22:31:36.247Z,9.35
2022-11-08T22:34:40.577Z,13.52
2022-11-08T22:37:44.683Z,10.43
2022-11-08T22:40:49.306Z,10.48
2022-11-08T22:43:54.032Z,9.55
2022-11-08T22:46:58.281Z,9.30
2022-11-08T22:50:02.641Z,9.75
2022-11-08T22:53:07.552Z,9.57
2022-11-08T22:56:12.835Z,10.90
2022-11-08T22:59:17.333Z,10.02
2022-11-08T23:02:21.575Z,7.88
2022-11-08T23:05:25.785Z,9.77
2022-11-08T23:08:31.411Z,10.00
2022-11-08T23:11:54.175Z,10.45
2022-11-08T23:15:16.793Z,10.95
2022-11-08T23:18:23.162Z,9.68
2022-11-08T23:21:45.857Z,10.50
2022-11-08T23:24:50.479Z,10.35
2022-11-08T23:28:13.272Z,10.10
2022-11-08T23:31:35.773Z,12.20
2022-11-08T23:34:40.003Z,10.88
2022-11-08T23:37:44.532Z,10.27
2022-11-08T23:41:07.346Z,9.43
2022-11-08T23:44:26.992Z,9.02
2022-11-08T23:47:31.154Z,9.75
2022-11-08T23:50:35.532Z,9.52
2022-11-08T23:53:40.703Z,10.13
2022-11-08T23:56:45.982Z,8.27
2022-11-08T23:59:50.332Z,10.63
